BLUE7 KASE-KMEM
Flight info
| Callsign | BLUE7 |
|---|---|
| Flight time | N/A |
| Altitude | 39000 |
| Route | LINDZ1 DBL JNETT POWDR HGO GCK BVO RZC BRBBQ3 |
| Aircraft | CL60/M-VGDW/C |
Departure
| Time | 2026-03-24 23:05 |
|---|---|
| Airport | Aspen-Pitkin County Airport (Sardy Field) (KASE) |
Arrival
| Time | N/A |
|---|---|
| Airport | Memphis International Airport (KMEM) |
| Time | Latitude | Longitude | Altitude | Speed | Heading |
|---|---|---|---|---|---|
| 2026-03-24 22:27 | 39.21889 | -106.86458 | 7785 ft | 0 kts | 70° |
| 2026-03-24 23:01 | 39.21889 | -106.86457 | 7785 ft | 0 kts | 69° |
| 2026-03-24 23:02 | 39.21891 | -106.86455 | 7785 ft | 2 kts | 47° |
| 2026-03-24 23:02 | 39.21894 | -106.86453 | 7785 ft | 0 kts | 5° |
| 2026-03-24 23:02 | 39.21896 | -106.86453 | 7784 ft | 2 kts | 348° |
| 2026-03-24 23:02 | 39.21765 | -106.86658 | 7799 ft | 65 kts | 181° |
| 2026-03-24 23:03 | 39.21390 | -106.86350 | 7820 ft | 55 kts | 120° |
| 2026-03-24 23:03 | 39.21211 | -106.86096 | 7869 ft | 32 kts | 163° |
| 2026-03-24 23:03 | 39.21121 | -106.86159 | 7841 ft | 38 kts | 251° |
| 2026-03-24 23:04 | 39.21236 | -106.86365 | 7831 ft | 34 kts | 344° |
| 2026-03-24 23:04 | 39.21653 | -106.86562 | 7807 ft | 100 kts | 333° |
| 2026-03-24 23:04 | 39.22546 | -106.86893 | 7847 ft | 155 kts | 342° |
| 2026-03-24 23:04 | 39.23489 | -106.87592 | 8400 ft | 173 kts | 328° |
| 2026-03-24 23:05 | 39.24549 | -106.88467 | 8971 ft | 188 kts | 326° |
| 2026-03-24 23:05 | 39.25704 | -106.89376 | 9607 ft | 209 kts | 339° |
| 2026-03-24 23:05 | 39.27032 | -106.90205 | 10245 ft | 218 kts | 328° |
| 2026-03-24 23:05 | 39.28105 | -106.91640 | 10848 ft | 233 kts | 301° |
| 2026-03-24 23:06 | 39.28751 | -106.93608 | 11615 ft | 252 kts | 286° |
| 2026-03-24 23:06 | 39.29201 | -106.95798 | 12616 ft | 256 kts | 283° |
| 2026-03-24 23:06 | 39.29509 | -106.98031 | 13531 ft | 264 kts | 277° |
| 2026-03-24 23:06 | 39.29532 | -107.00410 | 14497 ft | 269 kts | 273° |
| 2026-03-24 23:07 | 39.29836 | -107.02712 | 15429 ft | 268 kts | 293° |
| 2026-03-24 23:07 | 39.30920 | -107.04719 | 16033 ft | 279 kts | 310° |
| 2026-03-24 23:07 | 39.32317 | -107.06451 | 16772 ft | 287 kts | 323° |
| 2026-03-24 23:07 | 39.34233 | -107.07407 | 17430 ft | 305 kts | 344° |
| 2026-03-24 23:08 | 39.36400 | -107.07522 | 18162 ft | 322 kts | 1° |
| 2026-03-24 23:08 | 39.38604 | -107.06718 | 18817 ft | 344 kts | 19° |
| 2026-03-24 23:08 | 39.40575 | -107.04839 | 19199 ft | 375 kts | 42° |
| 2026-03-24 23:08 | 39.41996 | -107.01814 | 19293 ft | 406 kts | 65° |
| 2026-03-24 23:09 | 39.42715 | -106.98292 | 19206 ft | 412 kts | 72° |
| 2026-03-24 23:09 | 39.43361 | -106.94628 | 19468 ft | 422 kts | 73° |
| 2026-03-24 23:09 | 39.43733 | -106.90886 | 20439 ft | 424 kts | 86° |
| 2026-03-24 23:09 | 39.43447 | -106.87173 | 21551 ft | 421 kts | 99° |
| 2026-03-24 23:10 | 39.42728 | -106.83509 | 22376 ft | 423 kts | 103° |
| 2026-03-24 23:10 | 39.41958 | -106.79801 | 23100 ft | 428 kts | 103° |
| 2026-03-24 23:10 | 39.41188 | -106.76088 | 23765 ft | 433 kts | 103° |
| 2026-03-24 23:10 | 39.40402 | -106.72306 | 24439 ft | 438 kts | 103° |
| 2026-03-24 23:11 | 39.39615 | -106.68536 | 25107 ft | 441 kts | 102° |
| 2026-03-24 23:11 | 39.38813 | -106.64700 | 25739 ft | 446 kts | 102° |
| 2026-03-24 23:11 | 39.38002 | -106.60836 | 26404 ft | 449 kts | 103° |
| 2026-03-24 23:11 | 39.37185 | -106.56950 | 26965 ft | 453 kts | 102° |
| 2026-03-24 23:12 | 39.36352 | -106.52998 | 27582 ft | 456 kts | 102° |
| 2026-03-24 23:12 | 39.35569 | -106.49012 | 28124 ft | 459 kts | 97° |
| 2026-03-24 23:12 | 39.35363 | -106.44927 | 28599 ft | 458 kts | 83° |
| 2026-03-24 23:12 | 39.35555 | -106.40836 | 29137 ft | 460 kts | 81° |
| 2026-03-24 23:13 | 39.35749 | -106.36729 | 29689 ft | 463 kts | 82° |
| 2026-03-24 23:13 | 39.35940 | -106.32618 | 30184 ft | 465 kts | 82° |
| 2026-03-24 23:13 | 39.36132 | -106.28429 | 30716 ft | 467 kts | 82° |
| 2026-03-24 23:13 | 39.36324 | -106.24236 | 31091 ft | 472 kts | 82° |
| 2026-03-24 23:14 | 39.36514 | -106.20018 | 31502 ft | 475 kts | 83° |
| 2026-03-24 23:14 | 39.36704 | -106.15778 | 31954 ft | 477 kts | 83° |
| 2026-03-24 23:14 | 39.36894 | -106.11505 | 32278 ft | 481 kts | 83° |
| 2026-03-24 23:14 | 39.37083 | -106.07185 | 32701 ft | 482 kts | 83° |
| 2026-03-24 23:15 | 39.37271 | -106.02855 | 33136 ft | 483 kts | 83° |
| 2026-03-24 23:15 | 39.37458 | -105.98558 | 33432 ft | 487 kts | 83° |
| 2026-03-24 23:15 | 39.37646 | -105.94165 | 33723 ft | 490 kts | 83° |
| 2026-03-24 23:15 | 39.37831 | -105.89802 | 34100 ft | 491 kts | 83° |
| 2026-03-24 23:16 | 39.38015 | -105.85404 | 34430 ft | 493 kts | 83° |
| 2026-03-24 23:16 | 39.38199 | -105.80973 | 34879 ft | 492 kts | 83° |
| 2026-03-24 23:16 | 39.38377 | -105.76632 | 35439 ft | 488 kts | 83° |
| 2026-03-24 23:16 | 39.38555 | -105.72244 | 35947 ft | 485 kts | 82° |
| 2026-03-24 23:17 | 39.38730 | -105.67917 | 36392 ft | 484 kts | 83° |
| 2026-03-24 23:17 | 39.38901 | -105.63641 | 36874 ft | 481 kts | 83° |
| 2026-03-24 23:17 | 39.39072 | -105.59349 | 37198 ft | 482 kts | 83° |
| 2026-03-24 23:17 | 39.39225 | -105.55019 | 37523 ft | 483 kts | 84° |
| 2026-03-24 23:18 | 39.39106 | -105.50633 | 37746 ft | 489 kts | 92° |
| 2026-03-24 23:18 | 39.38594 | -105.46345 | 38044 ft | 492 kts | 99° |
| 2026-03-24 23:18 | 39.37677 | -105.42122 | 38462 ft | 491 kts | 107° |
| 2026-03-24 23:18 | 39.36459 | -105.37965 | 38891 ft | 489 kts | 109° |
| 2026-03-24 23:19 | 39.35241 | -105.33946 | 39367 ft | 485 kts | 110° |
| 2026-03-24 23:19 | 39.32769 | -105.25773 | 39408 ft | 492 kts | 110° |
| 2026-03-24 23:20 | 39.30250 | -105.17477 | 39332 ft | 503 kts | 110° |
| 2026-03-24 23:20 | 39.27694 | -105.09077 | 39358 ft | 510 kts | 110° |
| 2026-03-24 23:21 | 39.25082 | -105.00523 | 39238 ft | 518 kts | 110° |
| 2026-03-24 23:21 | 39.22442 | -104.91904 | 39192 ft | 524 kts | 109° |
| 2026-03-24 23:22 | 39.19777 | -104.83234 | 39104 ft | 523 kts | 110° |
| 2026-03-24 23:22 | 39.18438 | -104.78889 | 39209 ft | 520 kts | 109° |
| 2026-03-24 23:22 | 39.17102 | -104.74554 | 39127 ft | 523 kts | 110° |
| 2026-03-24 23:23 | 39.14426 | -104.65900 | 39175 ft | 521 kts | 110° |
| 2026-03-24 23:23 | 39.13102 | -104.61627 | 39353 ft | 519 kts | 109° |
| 2026-03-24 23:23 | 39.11754 | -104.57280 | 39132 ft | 523 kts | 109° |
| 2026-03-24 23:24 | 39.09075 | -104.48671 | 39154 ft | 520 kts | 109° |
| 2026-03-24 23:24 | 39.06415 | -104.40073 | 39272 ft | 516 kts | 107° |
| 2026-03-24 23:25 | 39.03804 | -104.31538 | 39203 ft | 521 kts | 109° |
| 2026-03-24 23:25 | 39.02472 | -104.27238 | 39373 ft | 518 kts | 109° |
| 2026-03-24 23:25 | 39.01131 | -104.22916 | 39313 ft | 520 kts | 109° |
| 2026-03-24 23:26 | 38.98444 | -104.14298 | 39275 ft | 522 kts | 109° |
| 2026-03-24 23:26 | 38.95744 | -104.05686 | 39271 ft | 522 kts | 109° |
| 2026-03-24 23:27 | 38.93029 | -103.97066 | 39233 ft | 521 kts | 109° |
| 2026-03-24 23:27 | 38.90306 | -103.88463 | 39241 ft | 521 kts | 108° |
| 2026-03-24 23:28 | 38.87600 | -103.79943 | 39242 ft | 519 kts | 109° |
| 2026-03-24 23:28 | 38.84871 | -103.71383 | 39184 ft | 520 kts | 109° |
| 2026-03-24 23:29 | 38.82138 | -103.62840 | 39199 ft | 520 kts | 108° |
| 2026-03-24 23:29 | 38.79550 | -103.54245 | 39207 ft | 519 kts | 106° |
| 2026-03-24 23:30 | 38.77014 | -103.45621 | 39181 ft | 519 kts | 106° |
| 2026-03-24 23:30 | 38.74452 | -103.36946 | 39162 ft | 519 kts | 106° |
| 2026-03-24 23:31 | 38.70636 | -103.24093 | 39153 ft | 518 kts | 107° |
| 2026-03-24 23:31 | 38.68076 | -103.15508 | 39134 ft | 518 kts | 107° |
| 2026-03-24 23:32 | 38.65490 | -103.06872 | 39128 ft | 520 kts | 106° |
| 2026-03-24 23:32 | 38.62905 | -102.98265 | 39125 ft | 521 kts | 106° |
| 2026-03-24 23:33 | 38.60319 | -102.89687 | 39120 ft | 521 kts | 106° |
| 2026-03-24 23:33 | 38.57711 | -102.81061 | 39125 ft | 521 kts | 107° |
| 2026-03-24 23:34 | 38.55106 | -102.72477 | 39110 ft | 521 kts | 106° |
| 2026-03-24 23:34 | 38.52486 | -102.63867 | 39124 ft | 520 kts | 106° |
| 2026-03-24 23:35 | 38.49867 | -102.55291 | 39100 ft | 521 kts | 106° |
| 2026-03-24 23:35 | 38.47235 | -102.46699 | 39090 ft | 521 kts | 106° |
| 2026-03-24 23:36 | 38.44600 | -102.38123 | 39085 ft | 521 kts | 106° |
| 2026-03-24 23:36 | 38.41965 | -102.29578 | 39080 ft | 520 kts | 106° |
| 2026-03-24 23:37 | 38.39322 | -102.21032 | 39076 ft | 522 kts | 106° |
| 2026-03-24 23:37 | 38.36646 | -102.12425 | 39075 ft | 523 kts | 107° |
| 2026-03-24 23:38 | 38.33966 | -102.03828 | 39082 ft | 523 kts | 107° |
| 2026-03-24 23:38 | 38.31286 | -101.95251 | 39072 ft | 523 kts | 106° |
| 2026-03-24 23:39 | 38.28612 | -101.86718 | 39078 ft | 523 kts | 107° |
| 2026-03-24 23:39 | 38.25909 | -101.78117 | 39075 ft | 523 kts | 105° |
| 2026-03-24 23:40 | 38.23215 | -101.69571 | 39072 ft | 522 kts | 106° |
| 2026-03-24 23:40 | 38.20532 | -101.61080 | 39063 ft | 522 kts | 106° |
| 2026-03-24 23:41 | 38.17812 | -101.52501 | 39055 ft | 523 kts | 105° |
| 2026-03-24 23:41 | 38.15098 | -101.43961 | 39051 ft | 523 kts | 105° |
| 2026-03-24 23:42 | 38.12378 | -101.35432 | 39047 ft | 524 kts | 105° |
| 2026-03-24 23:42 | 38.09643 | -101.26881 | 39045 ft | 524 kts | 106° |
| 2026-03-24 23:43 | 38.06906 | -101.18349 | 39043 ft | 525 kts | 106° |
| 2026-03-24 23:43 | 38.04163 | -101.09823 | 39042 ft | 525 kts | 105° |
| 2026-03-24 23:44 | 38.01395 | -101.01244 | 39012 ft | 525 kts | 105° |
| 2026-03-24 23:44 | 37.98638 | -100.92727 | 39016 ft | 525 kts | 106° |
| 2026-03-24 23:45 | 37.95863 | -100.84179 | 39017 ft | 525 kts | 106° |
| 2026-03-24 23:45 | 37.93101 | -100.75695 | 39014 ft | 524 kts | 105° |
| 2026-03-24 23:46 | 37.90436 | -100.67131 | 39010 ft | 521 kts | 102° |
| 2026-03-24 23:46 | 37.88012 | -100.58549 | 39009 ft | 520 kts | 102° |
| 2026-03-24 23:47 | 37.85573 | -100.49948 | 39013 ft | 520 kts | 102° |
| 2026-03-24 23:47 | 37.83125 | -100.41355 | 39021 ft | 522 kts | 102° |
| 2026-03-24 23:48 | 37.80660 | -100.32747 | 39027 ft | 522 kts | 103° |
| 2026-03-24 23:48 | 37.78192 | -100.24164 | 39034 ft | 522 kts | 103° |
| 2026-03-24 23:49 | 37.75710 | -100.15570 | 39036 ft | 520 kts | 103° |
| 2026-03-24 23:49 | 37.73230 | -100.07013 | 39030 ft | 520 kts | 103° |
| 2026-03-24 23:50 | 37.70747 | -99.98472 | 39030 ft | 521 kts | 103° |
| 2026-03-24 23:50 | 37.68253 | -99.89928 | 39033 ft | 520 kts | 102° |
| 2026-03-24 23:51 | 37.65762 | -99.81424 | 39034 ft | 520 kts | 103° |
| 2026-03-24 23:51 | 37.63263 | -99.72920 | 39040 ft | 520 kts | 102° |
| 2026-03-24 23:52 | 37.60742 | -99.64367 | 39034 ft | 521 kts | 102° |
| 2026-03-24 23:52 | 37.58224 | -99.55849 | 39037 ft | 521 kts | 102° |
| 2026-03-24 23:53 | 37.55686 | -99.47296 | 39037 ft | 521 kts | 102° |
| 2026-03-24 23:53 | 37.53154 | -99.38787 | 39035 ft | 521 kts | 102° |
| 2026-03-24 23:54 | 37.50615 | -99.30284 | 39033 ft | 521 kts | 103° |
| 2026-03-24 23:54 | 37.48068 | -99.21778 | 39030 ft | 522 kts | 103° |
| 2026-03-24 23:55 | 37.45507 | -99.13251 | 39036 ft | 523 kts | 103° |
| 2026-03-24 23:55 | 37.42923 | -99.04675 | 39032 ft | 524 kts | 103° |
| 2026-03-24 23:56 | 37.40356 | -98.96182 | 39031 ft | 524 kts | 103° |
| 2026-03-24 23:56 | 37.37764 | -98.87635 | 39026 ft | 525 kts | 103° |
| 2026-03-24 23:57 | 37.35164 | -98.79084 | 39036 ft | 524 kts | 103° |
| 2026-03-24 23:57 | 37.32560 | -98.70552 | 39034 ft | 524 kts | 103° |
| 2026-03-24 23:58 | 37.29955 | -98.62038 | 39031 ft | 524 kts | 103° |
| 2026-03-24 23:58 | 37.27356 | -98.53570 | 39024 ft | 523 kts | 103° |
| 2026-03-24 23:59 | 37.24739 | -98.45071 | 39032 ft | 523 kts | 103° |
| 2026-03-24 23:59 | 37.22111 | -98.36558 | 39035 ft | 523 kts | 103° |
| 2026-03-25 00:00 | 37.19490 | -98.28095 | 39050 ft | 523 kts | 103° |
| 2026-03-25 00:00 | 37.16863 | -98.19596 | 39048 ft | 523 kts | 102° |
| 2026-03-25 00:01 | 37.15049 | -98.10935 | 39039 ft | 511 kts | 90° |
| 2026-03-25 00:01 | 37.13840 | -98.02186 | 39047 ft | 510 kts | 90° |
| 2026-03-25 00:02 | 37.12626 | -97.93491 | 39050 ft | 510 kts | 90° |
| 2026-03-25 00:02 | 37.11391 | -97.84757 | 39047 ft | 510 kts | 90° |
| 2026-03-25 00:03 | 37.10148 | -97.76035 | 39046 ft | 511 kts | 90° |
| 2026-03-25 00:03 | 37.08894 | -97.67323 | 39057 ft | 511 kts | 90° |
| 2026-03-25 00:04 | 37.07626 | -97.58581 | 39057 ft | 511 kts | 90° |
| 2026-03-25 00:04 | 37.06352 | -97.49862 | 39059 ft | 511 kts | 91° |
| 2026-03-25 00:05 | 37.05074 | -97.41167 | 39058 ft | 510 kts | 91° |
| 2026-03-25 00:05 | 37.03792 | -97.32501 | 39067 ft | 509 kts | 91° |
| 2026-03-25 00:06 | 37.02492 | -97.23770 | 39065 ft | 509 kts | 91° |
| 2026-03-25 00:06 | 37.01203 | -97.15153 | 39070 ft | 509 kts | 91° |
| 2026-03-25 00:07 | 36.99898 | -97.06484 | 39081 ft | 509 kts | 91° |
| 2026-03-25 00:07 | 36.98589 | -96.97828 | 39072 ft | 508 kts | 91° |
| 2026-03-25 00:08 | 36.97273 | -96.89175 | 39072 ft | 508 kts | 91° |
| 2026-03-25 00:08 | 36.95950 | -96.80528 | 39080 ft | 507 kts | 91° |
| 2026-03-25 00:09 | 36.94624 | -96.71903 | 39072 ft | 507 kts | 91° |
| 2026-03-25 00:09 | 36.93289 | -96.63262 | 39086 ft | 507 kts | 91° |
| 2026-03-25 00:10 | 36.91959 | -96.54698 | 39084 ft | 508 kts | 91° |
| 2026-03-25 00:10 | 36.90608 | -96.46035 | 39075 ft | 508 kts | 91° |
| 2026-03-25 00:11 | 36.89257 | -96.37432 | 39079 ft | 507 kts | 91° |
| 2026-03-25 00:11 | 36.87892 | -96.28772 | 39079 ft | 507 kts | 91° |
| 2026-03-25 00:12 | 36.86528 | -96.20155 | 39071 ft | 508 kts | 91° |
| 2026-03-25 00:12 | 36.85160 | -96.11565 | 39119 ft | 509 kts | 91° |
| 2026-03-25 00:13 | 36.83741 | -96.02914 | 39104 ft | 514 kts | 95° |
| 2026-03-25 00:13 | 36.81392 | -95.94394 | 39099 ft | 524 kts | 102° |
| 2026-03-25 00:14 | 36.78833 | -95.85908 | 39101 ft | 524 kts | 102° |
| 2026-03-25 00:14 | 36.76282 | -95.77464 | 39073 ft | 524 kts | 101° |
| 2026-03-25 00:15 | 36.73728 | -95.69041 | 39085 ft | 522 kts | 101° |
| 2026-03-25 00:15 | 36.71162 | -95.60596 | 39082 ft | 523 kts | 102° |
| 2026-03-25 00:16 | 36.68588 | -95.52146 | 39094 ft | 523 kts | 101° |
| 2026-03-25 00:16 | 36.66007 | -95.43700 | 39091 ft | 523 kts | 101° |
| 2026-03-25 00:17 | 36.63438 | -95.35317 | 39104 ft | 523 kts | 100° |
| 2026-03-25 00:17 | 36.60831 | -95.26836 | 39113 ft | 524 kts | 101° |
| 2026-03-25 00:18 | 36.58242 | -95.18436 | 39112 ft | 523 kts | 102° |
| 2026-03-25 00:18 | 36.55637 | -95.10009 | 39113 ft | 523 kts | 101° |
| 2026-03-25 00:19 | 36.53038 | -95.01627 | 39115 ft | 523 kts | 101° |
| 2026-03-25 00:19 | 36.50406 | -94.93160 | 39116 ft | 524 kts | 101° |
| 2026-03-25 00:20 | 36.47787 | -94.84762 | 39117 ft | 524 kts | 101° |
| 2026-03-25 00:20 | 36.45155 | -94.76345 | 39132 ft | 525 kts | 101° |
| 2026-03-25 00:21 | 36.42520 | -94.67945 | 39133 ft | 524 kts | 101° |
| 2026-03-25 00:21 | 36.39887 | -94.59575 | 39135 ft | 524 kts | 101° |
| 2026-03-25 00:22 | 36.37232 | -94.51161 | 39139 ft | 524 kts | 101° |
| 2026-03-25 00:22 | 36.34572 | -94.42757 | 39164 ft | 523 kts | 101° |
| 2026-03-25 00:23 | 36.31922 | -94.34404 | 39162 ft | 523 kts | 102° |
| 2026-03-25 00:23 | 36.29266 | -94.26059 | 39165 ft | 524 kts | 102° |
| 2026-03-25 00:24 | 36.26583 | -94.17651 | 39165 ft | 524 kts | 102° |
| 2026-03-25 00:24 | 36.24234 | -94.09250 | 39154 ft | 515 kts | 93° |
| 2026-03-25 00:25 | 36.22750 | -94.00677 | 39154 ft | 509 kts | 90° |
| 2026-03-25 00:25 | 36.21326 | -93.92111 | 39172 ft | 509 kts | 90° |
| 2026-03-25 00:26 | 36.19895 | -93.83591 | 39192 ft | 508 kts | 90° |
| 2026-03-25 00:26 | 36.18447 | -93.75044 | 39183 ft | 510 kts | 90° |
| 2026-03-25 00:27 | 36.16987 | -93.66489 | 39185 ft | 510 kts | 90° |
| 2026-03-25 00:27 | 36.15506 | -93.57909 | 39170 ft | 510 kts | 90° |
| 2026-03-25 00:28 | 36.14024 | -93.49337 | 39154 ft | 510 kts | 90° |
| 2026-03-25 00:28 | 36.12537 | -93.40788 | 39168 ft | 510 kts | 90° |
| 2026-03-25 00:29 | 36.11037 | -93.32223 | 39168 ft | 508 kts | 91° |
| 2026-03-25 00:29 | 36.09528 | -93.23725 | 39184 ft | 508 kts | 91° |
| 2026-03-25 00:30 | 36.08021 | -93.15283 | 39177 ft | 507 kts | 91° |
| 2026-03-25 00:30 | 36.06506 | -93.06812 | 39157 ft | 506 kts | 91° |
| 2026-03-25 00:31 | 36.04979 | -92.98309 | 39177 ft | 505 kts | 91° |
| 2026-03-25 00:31 | 36.03459 | -92.89878 | 39146 ft | 506 kts | 91° |
| 2026-03-25 00:32 | 36.01922 | -92.81392 | 39175 ft | 507 kts | 91° |
| 2026-03-25 00:32 | 36.00965 | -92.77202 | 39183 ft | 519 kts | 99° |
| 2026-03-25 00:32 | 35.99578 | -92.73068 | 39177 ft | 526 kts | 103° |
| 2026-03-25 00:33 | 35.98318 | -92.68857 | 39172 ft | 514 kts | 95° |
| 2026-03-25 00:33 | 35.97552 | -92.64658 | 39159 ft | 505 kts | 89° |
| 2026-03-25 00:33 | 35.96263 | -92.56154 | 39172 ft | 503 kts | 89° |
| 2026-03-25 00:34 | 35.94968 | -92.47684 | 39179 ft | 504 kts | 89° |
| 2026-03-25 00:34 | 35.93624 | -92.39238 | 39177 ft | 503 kts | 90° |
| 2026-03-25 00:35 | 35.92164 | -92.30850 | 39186 ft | 502 kts | 91° |
| 2026-03-25 00:35 | 35.90675 | -92.22469 | 39185 ft | 501 kts | 92° |
| 2026-03-25 00:36 | 35.89182 | -92.14105 | 39192 ft | 501 kts | 91° |
| 2026-03-25 00:36 | 35.87680 | -92.05738 | 39175 ft | 501 kts | 92° |
| 2026-03-25 00:37 | 35.86170 | -91.97375 | 39173 ft | 502 kts | 92° |
| 2026-03-25 00:37 | 35.84655 | -91.89018 | 39012 ft | 506 kts | 92° |
| 2026-03-25 00:38 | 35.83889 | -91.84794 | 38557 ft | 506 kts | 92° |
| 2026-03-25 00:38 | 35.83123 | -91.80619 | 38191 ft | 504 kts | 92° |
| 2026-03-25 00:38 | 35.82339 | -91.76434 | 37815 ft | 504 kts | 94° |
| 2026-03-25 00:38 | 35.81280 | -91.72280 | 37452 ft | 511 kts | 101° |
| 2026-03-25 00:39 | 35.79877 | -91.68230 | 36594 ft | 521 kts | 104° |
| 2026-03-25 00:39 | 35.78399 | -91.64209 | 35180 ft | 530 kts | 105° |
| 2026-03-25 00:39 | 35.76879 | -91.60091 | 33807 ft | 533 kts | 106° |
| 2026-03-25 00:39 | 35.75346 | -91.55958 | 32368 ft | 527 kts | 107° |
| 2026-03-25 00:40 | 35.73845 | -91.51913 | 30903 ft | 523 kts | 109° |
| 2026-03-25 00:40 | 35.72356 | -91.47902 | 29571 ft | 515 kts | 110° |
| 2026-03-25 00:40 | 35.70896 | -91.43978 | 28514 ft | 502 kts | 110° |
| 2026-03-25 00:40 | 35.69477 | -91.40166 | 27463 ft | 492 kts | 110° |
| 2026-03-25 00:41 | 35.68073 | -91.36393 | 26637 ft | 476 kts | 111° |
| 2026-03-25 00:41 | 35.66720 | -91.32772 | 26298 ft | 455 kts | 111° |
| 2026-03-25 00:41 | 35.65414 | -91.29266 | 26261 ft | 459 kts | 111° |
| 2026-03-25 00:41 | 35.64069 | -91.25653 | 26206 ft | 468 kts | 111° |
| 2026-03-25 00:42 | 35.61396 | -91.18508 | 25920 ft | 450 kts | 111° |
| 2026-03-25 00:42 | 35.60097 | -91.15044 | 25450 ft | 443 kts | 111° |
| 2026-03-25 00:42 | 35.58819 | -91.11636 | 24831 ft | 439 kts | 111° |
| 2026-03-25 00:43 | 35.57556 | -91.08273 | 24218 ft | 435 kts | 111° |
| 2026-03-25 00:43 | 35.56289 | -91.04903 | 23105 ft | 440 kts | 112° |
| 2026-03-25 00:43 | 35.55020 | -91.01538 | 22095 ft | 436 kts | 112° |
| 2026-03-25 00:43 | 35.53768 | -90.98225 | 21324 ft | 424 kts | 113° |
| 2026-03-25 00:44 | 35.52538 | -90.94987 | 20557 ft | 414 kts | 113° |
| 2026-03-25 00:44 | 35.51330 | -90.91811 | 19752 ft | 405 kts | 113° |
| 2026-03-25 00:44 | 35.50176 | -90.88708 | 18856 ft | 399 kts | 111° |
| 2026-03-25 00:44 | 35.49118 | -90.85588 | 17948 ft | 395 kts | 110° |
| 2026-03-25 00:45 | 35.48087 | -90.82533 | 17067 ft | 390 kts | 111° |
| 2026-03-25 00:45 | 35.47052 | -90.79483 | 16258 ft | 382 kts | 111° |
| 2026-03-25 00:45 | 35.46074 | -90.76592 | 16176 ft | 354 kts | 111° |
| 2026-03-25 00:45 | 35.45195 | -90.73994 | 16111 ft | 332 kts | 112° |
| 2026-03-25 00:46 | 35.44324 | -90.71443 | 15781 ft | 321 kts | 112° |
| 2026-03-25 00:46 | 35.43466 | -90.68936 | 15297 ft | 318 kts | 111° |
| 2026-03-25 00:46 | 35.42617 | -90.66432 | 14830 ft | 313 kts | 111° |
| 2026-03-25 00:46 | 35.41803 | -90.64001 | 14329 ft | 312 kts | 112° |
| 2026-03-25 00:47 | 35.41002 | -90.61549 | 13824 ft | 309 kts | 112° |
| 2026-03-25 00:47 | 35.40231 | -90.59107 | 13279 ft | 309 kts | 112° |
| 2026-03-25 00:47 | 35.39470 | -90.56670 | 13026 ft | 296 kts | 111° |
| 2026-03-25 00:47 | 35.38763 | -90.54387 | 12827 ft | 284 kts | 112° |
| 2026-03-25 00:48 | 35.38075 | -90.52128 | 12429 ft | 281 kts | 111° |
| 2026-03-25 00:48 | 35.37393 | -90.49900 | 12032 ft | 278 kts | 112° |
| 2026-03-25 00:48 | 35.36729 | -90.47685 | 11691 ft | 273 kts | 112° |
| 2026-03-25 00:48 | 35.36092 | -90.45535 | 11275 ft | 271 kts | 111° |
| 2026-03-25 00:49 | 35.35470 | -90.43395 | 10990 ft | 264 kts | 111° |
| 2026-03-25 00:49 | 35.34861 | -90.41285 | 10640 ft | 260 kts | 111° |
| 2026-03-25 00:49 | 35.34274 | -90.39198 | 10279 ft | 257 kts | 107° |
| 2026-03-25 00:49 | 35.34010 | -90.37077 | 10034 ft | 252 kts | 96° |
| 2026-03-25 00:50 | 35.33874 | -90.34909 | 9985 ft | 255 kts | 96° |
| 2026-03-25 00:50 | 35.33745 | -90.32705 | 9496 ft | 269 kts | 96° |
| 2026-03-25 00:50 | 35.33615 | -90.30386 | 8712 ft | 279 kts | 96° |
| 2026-03-25 00:50 | 35.33491 | -90.28036 | 8161 ft | 279 kts | 96° |
| 2026-03-25 00:51 | 35.33374 | -90.25672 | 7617 ft | 278 kts | 96° |
| 2026-03-25 00:51 | 35.33272 | -90.23331 | 7067 ft | 277 kts | 94° |
| 2026-03-25 00:51 | 35.33148 | -90.20995 | 6495 ft | 274 kts | 95° |
| 2026-03-25 00:52 | 35.32904 | -90.16538 | 5994 ft | 243 kts | 95° |
| 2026-03-25 00:52 | 35.32796 | -90.14562 | 5968 ft | 228 kts | 95° |
| 2026-03-25 00:52 | 35.32702 | -90.12676 | 5983 ft | 220 kts | 95° |
| 2026-03-25 00:52 | 35.32612 | -90.10814 | 5997 ft | 217 kts | 95° |
| 2026-03-25 00:53 | 35.32528 | -90.08956 | 5978 ft | 217 kts | 96° |
| 2026-03-25 00:53 | 35.32448 | -90.07134 | 5962 ft | 217 kts | 95° |
| 2026-03-25 00:53 | 35.32356 | -90.05231 | 5396 ft | 233 kts | 95° |
| 2026-03-25 00:53 | 35.32248 | -90.03213 | 4556 ft | 249 kts | 95° |
| 2026-03-25 00:54 | 35.32048 | -90.01097 | 3754 ft | 253 kts | 107° |
| 2026-03-25 00:54 | 35.31121 | -89.99323 | 3199 ft | 248 kts | 139° |
| 2026-03-25 00:54 | 35.29655 | -89.98355 | 3006 ft | 231 kts | 163° |
| 2026-03-25 00:54 | 35.28152 | -89.98026 | 3003 ft | 210 kts | 170° |
| 2026-03-25 00:55 | 35.26749 | -89.97846 | 2982 ft | 195 kts | 173° |
| 2026-03-25 00:55 | 35.25383 | -89.97762 | 2973 ft | 196 kts | 176° |
| 2026-03-25 00:55 | 35.24021 | -89.97716 | 2962 ft | 194 kts | 177° |
| 2026-03-25 00:55 | 35.22727 | -89.97687 | 2975 ft | 177 kts | 177° |
| 2026-03-25 00:56 | 35.21490 | -89.97658 | 2924 ft | 177 kts | 177° |
| 2026-03-25 00:56 | 35.20249 | -89.97632 | 2787 ft | 179 kts | 177° |
| 2026-03-25 00:56 | 35.19023 | -89.97610 | 2683 ft | 172 kts | 177° |
| 2026-03-25 00:56 | 35.17859 | -89.97588 | 2604 ft | 160 kts | 177° |
| 2026-03-25 00:57 | 35.16794 | -89.97567 | 2426 ft | 151 kts | 176° |
| 2026-03-25 00:57 | 35.15756 | -89.97543 | 2314 ft | 149 kts | 176° |
| 2026-03-25 00:57 | 35.14724 | -89.97521 | 2156 ft | 142 kts | 177° |
| 2026-03-25 00:57 | 35.13754 | -89.97504 | 1992 ft | 140 kts | 176° |
| 2026-03-25 00:58 | 35.12789 | -89.97482 | 1804 ft | 139 kts | 176° |
| 2026-03-25 00:58 | 35.11807 | -89.97461 | 1623 ft | 139 kts | 175° |
| 2026-03-25 00:58 | 35.10862 | -89.97411 | 1453 ft | 139 kts | 175° |
| 2026-03-25 00:58 | 35.09909 | -89.97381 | 1271 ft | 139 kts | 177° |
| 2026-03-25 00:59 | 35.08986 | -89.97372 | 1104 ft | 137 kts | 178° |
| 2026-03-25 00:59 | 35.08102 | -89.97360 | 938 ft | 133 kts | 178° |